sensor_id;sensor_type;location;lat;lon;timestamp;pressure;altitude;pressure_sealevel;temperature;humidity
60642;BME280;46837;52.446;-1.930;2022-11-04T00:00:09;98784.37;;;7.56;80.92
60642;BME280;46837;52.446;-1.930;2022-11-04T00:01:09;98783.80;;;7.52;80.90
60642;BME280;46837;52.446;-1.930;2022-11-04T00:02:09;98784.77;;;7.52;81.19
60642;BME280;46837;52.446;-1.930;2022-11-04T00:03:09;98788.39;;;7.51;81.31
60642;BME280;46837;52.446;-1.930;2022-11-04T00:04:09;98788.47;;;7.52;81.52
60642;BME280;46837;52.446;-1.930;2022-11-04T00:05:09;98789.36;;;7.50;82.07
60642;BME280;46837;52.446;-1.930;2022-11-04T00:06:09;98791.70;;;7.50;82.26
60642;BME280;46837;52.446;-1.930;2022-11-04T00:07:13;98789.04;;;7.49;82.48
60642;BME280;46837;52.446;-1.930;2022-11-04T00:08:13;98791.57;;;7.51;82.54
60642;BME280;46837;52.446;-1.930;2022-11-04T00:09:10;98793.47;;;7.52;82.43
60642;BME280;46837;52.446;-1.930;2022-11-04T00:10:09;98800.48;;;7.52;82.51
60642;BME280;46837;52.446;-1.930;2022-11-04T00:11:13;98802.77;;;7.54;82.52
60642;BME280;46837;52.446;-1.930;2022-11-04T00:12:13;98805.30;;;7.55;82.38
60642;BME280;46837;52.446;-1.930;2022-11-04T00:13:09;98805.41;;;7.55;82.43
60642;BME280;46837;52.446;-1.930;2022-11-04T00:14:09;98804.29;;;7.54;82.60
60642;BME280;46837;52.446;-1.930;2022-11-04T00:15:13;98806.82;;;7.55;82.50
60642;BME280;46837;52.446;-1.930;2022-11-04T00:16:13;98810.87;;;7.54;82.57
60642;BME280;46837;52.446;-1.930;2022-11-04T00:17:13;98811.46;;;7.53;82.58
60642;BME280;46837;52.446;-1.930;2022-11-04T00:18:09;98811.57;;;7.54;82.50
60642;BME280;46837;52.446;-1.930;2022-11-04T00:19:09;98814.02;;;7.54;82.54
60642;BME280;46837;52.446;-1.930;2022-11-04T00:20:13;98818.64;;;7.54;82.61
60642;BME280;46837;52.446;-1.930;2022-11-04T00:21:13;98821.44;;;7.55;82.55
60642;BME280;46837;52.446;-1.930;2022-11-04T00:22:13;98826.20;;;7.53;82.78
60642;BME280;46837;52.446;-1.930;2022-11-04T00:23:13;98825.43;;;7.54;82.87
60642;BME280;46837;52.446;-1.930;2022-11-04T00:24:13;98826.68;;;7.54;82.68
60642;BME280;46837;52.446;-1.930;2022-11-04T00:25:13;98828.97;;;7.52;82.83
60642;BME280;46837;52.446;-1.930;2022-11-04T00:26:13;98832.28;;;7.52;82.94
60642;BME280;46837;52.446;-1.930;2022-11-04T00:27:16;98837.29;;;7.54;82.91
60642;BME280;46837;52.446;-1.930;2022-11-04T00:28:14;98836.03;;;7.54;82.83
60642;BME280;46837;52.446;-1.930;2022-11-04T00:29:09;98842.02;;;7.52;83.06
60642;BME280;46837;52.446;-1.930;2022-11-04T00:30:09;98841.80;;;7.53;83.00
60642;BME280;46837;52.446;-1.930;2022-11-04T00:31:13;98841.91;;;7.54;82.97
60642;BME280;46837;52.446;-1.930;2022-11-04T00:32:13;98843.50;;;7.51;83.08
60642;BME280;46837;52.446;-1.930;2022-11-04T00:33:13;98844.52;;;7.52;83.15
60642;BME280;46837;52.446;-1.930;2022-11-04T00:34:09;98842.88;;;7.51;83.09
60642;BME280;46837;52.446;-1.930;2022-11-04T00:35:09;98848.37;;;7.53;83.00
60642;BME280;46837;52.446;-1.930;2022-11-04T00:36:09;98848.86;;;7.54;82.90
60642;BME280;46837;52.446;-1.930;2022-11-04T00:37:09;98850.82;;;7.53;82.98
60642;BME280;46837;52.446;-1.930;2022-11-04T00:38:09;98850.98;;;7.52;83.02
60642;BME280;46837;52.446;-1.930;2022-11-04T00:39:09;98854.52;;;7.52;83.14
60642;BME280;46837;52.446;-1.930;2022-11-04T00:40:10;98858.34;;;7.50;83.19
60642;BME280;46837;52.446;-1.930;2022-11-04T00:41:13;98863.02;;;7.50;83.20
60642;BME280;46837;52.446;-1.930;2022-11-04T00:42:09;98861.82;;;7.50;83.18
60642;BME280;46837;52.446;-1.930;2022-11-04T00:43:09;98866.17;;;7.50;83.21
60642;BME280;46837;52.446;-1.930;2022-11-04T00:44:09;98859.16;;;7.51;83.18
60642;BME280;46837;52.446;-1.930;2022-11-04T00:45:09;98864.84;;;7.52;83.11
60642;BME280;46837;52.446;-1.930;2022-11-04T00:46:09;98863.98;;;7.52;83.12
60642;BME280;46837;52.446;-1.930;2022-11-04T00:47:09;98866.61;;;7.50;83.21
60642;BME280;46837;52.446;-1.930;2022-11-04T00:48:09;98867.80;;;7.51;83.18
60642;BME280;46837;52.446;-1.930;2022-11-04T00:49:09;98872.36;;;7.51;83.21
60642;BME280;46837;52.446;-1.930;2022-11-04T00:50:09;98869.79;;;7.51;83.19
60642;BME280;46837;52.446;-1.930;2022-11-04T00:51:09;98869.84;;;7.51;83.15
60642;BME280;46837;52.446;-1.930;2022-11-04T00:52:09;98876.64;;;7.53;83.03
60642;BME280;46837;52.446;-1.930;2022-11-04T00:53:09;98880.30;;;7.51;83.01
60642;BME280;46837;52.446;-1.930;2022-11-04T00:54:09;98888.76;;;7.51;83.10
60642;BME280;46837;52.446;-1.930;2022-11-04T00:55:09;98888.13;;;7.50;83.02
60642;BME280;46837;52.446;-1.930;2022-11-04T00:56:09;98886.82;;;7.50;83.03
60642;BME280;46837;52.446;-1.930;2022-11-04T00:57:14;98890.57;;;7.50;82.97
60642;BME280;46837;52.446;-1.930;2022-11-04T00:58:09;98896.82;;;7.50;83.06
60642;BME280;46837;52.446;-1.930;2022-11-04T00:59:09;98899.33;;;7.50;82.94
60642;BME280;46837;52.446;-1.930;2022-11-04T01:00:09;98898.89;;;7.48;82.99
60642;BME280;46837;52.446;-1.930;2022-11-04T01:01:12;98898.04;;;7.45;83.07
60642;BME280;46837;52.446;-1.930;2022-11-04T01:02:09;98902.08;;;7.43;83.07
60642;BME280;46837;52.446;-1.930;2022-11-04T01:03:09;98905.50;;;7.41;83.13
60642;BME280;46837;52.446;-1.930;2022-11-04T01:04:09;98910.68;;;7.39;83.20
60642;BME280;46837;52.446;-1.930;2022-11-04T01:05:09;98912.06;;;7.37;83.31
60642;BME280;46837;52.446;-1.930;2022-11-04T01:06:09;98918.36;;;7.36;83.30
60642;BME280;46837;52.446;-1.930;2022-11-04T01:07:09;98918.52;;;7.36;83.29
60642;BME280;46837;52.446;-1.930;2022-11-04T01:08:09;98920.71;;;7.32;83.35
60642;BME280;46837;52.446;-1.930;2022-11-04T01:09:10;98923.92;;;7.32;83.42
60642;BME280;46837;52.446;-1.930;2022-11-04T01:10:09;98931.16;;;7.28;83.52
60642;BME280;46837;52.446;-1.930;2022-11-04T01:11:09;98930.78;;;7.29;83.57
60642;BME280;46837;52.446;-1.930;2022-11-04T01:12:09;98932.86;;;7.26;83.54
60642;BME280;46837;52.446;-1.930;2022-11-04T01:13:09;98938.67;;;7.24;83.64
60642;BME280;46837;52.446;-1.930;2022-11-04T01:14:09;98939.48;;;7.24;83.76
60642;BME280;46837;52.446;-1.930;2022-11-04T01:15:09;98942.42;;;7.24;83.69
60642;BME280;46837;52.446;-1.930;2022-11-04T01:16:09;98941.07;;;7.22;83.67
60642;BME280;46837;52.446;-1.930;2022-11-04T01:17:09;98941.22;;;7.25;83.71
60642;BME280;46837;52.446;-1.930;2022-11-04T01:18:09;98940.57;;;7.25;83.53
60642;BME280;46837;52.446;-1.930;2022-11-04T01:19:09;98941.66;;;7.26;83.43
60642;BME280;46837;52.446;-1.930;2022-11-04T01:20:09;98943.40;;;7.25;83.44
60642;BME280;46837;52.446;-1.930;2022-11-04T01:21:10;98944.10;;;7.23;83.54
60642;BME280;46837;52.446;-1.930;2022-11-04T01:22:09;98946.49;;;7.24;83.60
60642;BME280;46837;52.446;-1.930;2022-11-04T01:23:09;98949.32;;;7.23;83.65
60642;BME280;46837;52.446;-1.930;2022-11-04T01:24:09;98954.21;;;7.24;83.64
60642;BME280;46837;52.446;-1.930;2022-11-04T01:25:09;98955.42;;;7.22;83.63
60642;BME280;46837;52.446;-1.930;2022-11-04T01:26:15;98960.89;;;7.25;83.66
60642;BME280;46837;52.446;-1.930;2022-11-04T01:27:09;98964.10;;;7.26;83.52
60642;BME280;46837;52.446;-1.930;2022-11-04T01:28:09;98964.91;;;7.25;83.34
60642;BME280;46837;52.446;-1.930;2022-11-04T01:29:09;98968.39;;;7.25;83.46
60642;BME280;46837;52.446;-1.930;2022-11-04T01:30:09;98971.33;;;7.26;83.46
60642;BME280;46837;52.446;-1.930;2022-11-04T01:31:10;98973.12;;;7.26;83.37
60642;BME280;46837;52.446;-1.930;2022-11-04T01:32:09;98974.30;;;7.27;83.35
60642;BME280;46837;52.446;-1.930;2022-11-04T01:33:09;98979.36;;;7.29;83.22
60642;BME280;46837;52.446;-1.930;2022-11-04T01:34:09;98981.37;;;7.28;83.19
60642;BME280;46837;52.446;-1.930;2022-11-04T01:35:09;98982.62;;;7.28;83.13
60642;BME280;46837;52.446;-1.930;2022-11-04T01:36:09;98986.86;;;7.28;83.13
60642;BME280;46837;52.446;-1.930;2022-11-04T01:37:09;98985.93;;;7.29;83.14
60642;BME280;46837;52.446;-1.930;2022-11-04T01:38:09;98991.41;;;7.31;83.02
60642;BME280;46837;52.446;-1.930;2022-11-04T01:39:10;98987.17;;;7.31;82.96
60642;BME280;46837;52.446;-1.930;2022-11-04T01:40:09;98985.86;;;7.31;82.92
60642;BME280;46837;52.446;-1.930;2022-11-04T01:41:10;98985.92;;;7.31;82.87
60642;BME280;46837;52.446;-1.930;2022-11-04T01:42:12;98985.81;;;7.32;82.84
60642;BME280;46837;52.446;-1.930;2022-11-04T01:43:13;98985.70;;;7.31;82.79
60642;BME280;46837;52.446;-1.930;2022-11-04T01:45:14;98989.47;;;7.23;83.18
60642;BME280;46837;52.446;-1.930;2022-11-04T01:46:09;98993.17;;;7.25;83.11
60642;BME280;46837;52.446;-1.930;2022-11-04T01:47:20;98995.71;;;7.27;83.04
60642;BME280;46837;52.446;-1.930;2022-11-04T01:48:12;99002.57;;;7.26;82.92
60642;BME280;46837;52.446;-1.930;2022-11-04T01:50:14;99001.21;;;7.25;82.81
60642;BME280;46837;52.446;-1.930;2022-11-04T01:51:09;99003.98;;;7.23;82.99
60642;BME280;46837;52.446;-1.930;2022-11-04T01:52:12;99005.67;;;7.25;82.99
60642;BME280;46837;52.446;-1.930;2022-11-04T01:53:16;99008.32;;;7.24;82.81
60642;BME280;46837;52.446;-1.930;2022-11-04T01:54:09;99009.79;;;7.24;82.77
60642;BME280;46837;52.446;-1.930;2022-11-04T01:55:14;99013.76;;;7.24;82.80
60642;BME280;46837;52.446;-1.930;2022-11-04T01:56:13;99016.92;;;7.21;82.69
60642;BME280;46837;52.446;-1.930;2022-11-04T01:57:10;99017.14;;;7.20;82.77
60642;BME280;46837;52.446;-1.930;2022-11-04T01:58:10;99021.55;;;7.18;82.93
60642;BME280;46837;52.446;-1.930;2022-11-04T01:59:14;99022.80;;;7.18;82.85
60642;BME280;46837;52.446;-1.930;2022-11-04T02:00:09;99023.06;;;7.16;82.86
60642;BME280;46837;52.446;-1.930;2022-11-04T02:01:09;99029.03;;;7.20;82.97
60642;BME280;46837;52.446;-1.930;2022-11-04T02:02:09;99027.96;;;7.22;82.85
60642;BME280;46837;52.446;-1.930;2022-11-04T02:03:13;99032.73;;;7.20;82.71
60642;BME280;46837;52.446;-1.930;2022-11-04T02:04:13;99033.54;;;7.20;82.86
60642;BME280;46837;52.446;-1.930;2022-11-04T02:05:09;99036.16;;;7.21;82.74
60642;BME280;46837;52.446;-1.930;2022-11-04T02:06:09;99035.78;;;7.22;82.64
60642;BME280;46837;52.446;-1.930;2022-11-04T02:07:09;99036.54;;;7.22;82.58
60642;BME280;46837;52.446;-1.930;2022-11-04T02:08:09;99041.46;;;7.23;82.56
60642;BME280;46837;52.446;-1.930;2022-11-04T02:09:09;99043.44;;;7.23;82.50
60642;BME280;46837;52.446;-1.930;2022-11-04T02:10:09;99043.87;;;7.22;82.50
60642;BME280;46837;52.446;-1.930;2022-11-04T02:11:09;99047.29;;;7.21;82.48
60642;BME280;46837;52.446;-1.930;2022-11-04T02:12:13;99043.18;;;7.18;82.42
60642;BME280;46837;52.446;-1.930;2022-11-04T02:13:09;99048.88;;;7.18;82.47
60642;BME280;46837;52.446;-1.930;2022-11-04T02:14:09;99051.71;;;7.19;82.41
60642;BME280;46837;52.446;-1.930;2022-11-04T02:15:09;99056.70;;;7.18;82.40
60642;BME280;46837;52.446;-1.930;2022-11-04T02:16:18;99055.83;;;7.18;82.27
60642;BME280;46837;52.446;-1.930;2022-11-04T02:21:26;99064.79;;;7.13;82.28
60642;BME280;46837;52.446;-1.930;2022-11-04T02:26:21;99071.11;;;7.08;82.33
60642;BME280;46837;52.446;-1.930;2022-11-04T02:28:21;99071.11;;;7.08;82.31
60642;BME280;46837;52.446;-1.930;2022-11-04T02:31:13;99068.44;;;7.07;82.24
60642;BME280;46837;52.446;-1.930;2022-11-04T02:34:17;99072.41;;;7.07;82.35
60642;BME280;46837;52.446;-1.930;2022-11-04T02:41:16;99086.54;;;7.09;82.10
60642;BME280;46837;52.446;-1.930;2022-11-04T02:43:21;99091.79;;;7.09;81.89
60642;BME280;46837;52.446;-1.930;2022-11-04T02:44:17;99091.59;;;7.08;81.83
60642;BME280;46837;52.446;-1.930;2022-11-04T02:46:20;99093.82;;;7.04;81.90
60642;BME280;46837;52.446;-1.930;2022-11-04T02:47:14;99090.66;;;6.97;81.84
60642;BME280;46837;52.446;-1.930;2022-11-04T02:48:22;99089.95;;;6.90;82.42
60642;BME280;46837;52.446;-1.930;2022-11-04T02:49:12;99097.24;;;6.91;82.67
60642;BME280;46837;52.446;-1.930;2022-11-04T02:50:16;99093.55;;;6.91;82.63
60642;BME280;46837;52.446;-1.930;2022-11-04T02:52:09;99104.06;;;6.76;82.96
60642;BME280;46837;52.446;-1.930;2022-11-04T02:53:14;99102.37;;;6.71;83.28
60642;BME280;46837;52.446;-1.930;2022-11-04T02:54:17;99098.79;;;6.66;83.50
60642;BME280;46837;52.446;-1.930;2022-11-04T02:55:17;99100.47;;;6.65;83.54
60642;BME280;46837;52.446;-1.930;2022-11-04T02:56:09;99100.84;;;6.62;83.64
60642;BME280;46837;52.446;-1.930;2022-11-04T02:57:12;99101.64;;;6.60;83.85
60642;BME280;46837;52.446;-1.930;2022-11-04T02:58:12;99102.36;;;6.64;83.80
60642;BME280;46837;52.446;-1.930;2022-11-04T02:59:11;99110.07;;;6.68;83.61
60642;BME280;46837;52.446;-1.930;2022-11-04T03:00:09;99113.02;;;6.70;83.39
60642;BME280;46837;52.446;-1.930;2022-11-04T03:01:10;99115.62;;;6.68;83.30
60642;BME280;46837;52.446;-1.930;2022-11-04T03:02:15;99115.68;;;6.72;83.39
60642;BME280;46837;52.446;-1.930;2022-11-04T03:03:14;99114.43;;;6.73;83.16
60642;BME280;46837;52.446;-1.930;2022-11-04T03:04:14;99118.45;;;6.72;82.95
60642;BME280;46837;52.446;-1.930;2022-11-04T03:05:11;99121.33;;;6.73;82.79
60642;BME280;46837;52.446;-1.930;2022-11-04T03:06:09;99123.98;;;6.72;82.63
60642;BME280;46837;52.446;-1.930;2022-11-04T03:07:10;99122.74;;;6.70;82.64
60642;BME280;46837;52.446;-1.930;2022-11-04T03:08:14;99125.94;;;6.72;82.70
60642;BME280;46837;52.446;-1.930;2022-11-04T03:09:09;99130.01;;;6.72;82.45
60642;BME280;46837;52.446;-1.930;2022-11-04T03:10:15;99130.77;;;6.72;82.53
60642;BME280;46837;52.446;-1.930;2022-11-04T03:11:12;99134.85;;;6.73;82.41
60642;BME280;46837;52.446;-1.930;2022-11-04T03:12:11;99140.27;;;6.72;82.22
60642;BME280;46837;52.446;-1.930;2022-11-04T03:13:14;99139.95;;;6.72;82.36
60642;BME280;46837;52.446;-1.930;2022-11-04T03:14:13;99149.17;;;6.72;82.19
60642;BME280;46837;52.446;-1.930;2022-11-04T03:15:11;99151.93;;;6.71;82.15
60642;BME280;46837;52.446;-1.930;2022-11-04T03:17:25;99157.21;;;6.70;82.11
60642;BME280;46837;52.446;-1.930;2022-11-04T03:18:17;99157.64;;;6.68;82.29
60642;BME280;46837;52.446;-1.930;2022-11-04T03:19:15;99161.16;;;6.67;82.16
60642;BME280;46837;52.446;-1.930;2022-11-04T03:20:17;99162.31;;;6.69;82.35
60642;BME280;46837;52.446;-1.930;2022-11-04T03:21:10;99166.37;;;6.68;82.16
60642;BME280;46837;52.446;-1.930;2022-11-04T03:22:13;99163.32;;;6.67;82.20
60642;BME280;46837;52.446;-1.930;2022-11-04T03:23:09;99168.98;;;6.68;82.24
60642;BME280;46837;52.446;-1.930;2022-11-04T03:24:09;99170.82;;;6.68;82.24
60642;BME280;46837;52.446;-1.930;2022-11-04T03:25:09;99173.05;;;6.69;82.12
60642;BME280;46837;52.446;-1.930;2022-11-04T03:26:20;99170.27;;;6.67;82.07
60642;BME280;46837;52.446;-1.930;2022-11-04T03:28:19;99168.74;;;6.63;81.99
60642;BME280;46837;52.446;-1.930;2022-11-04T03:29:16;99169.84;;;6.63;82.21
60642;BME280;46837;52.446;-1.930;2022-11-04T03:30:16;99167.12;;;6.62;82.10
60642;BME280;46837;52.446;-1.930;2022-11-04T03:31:12;99167.72;;;6.62;82.15
60642;BME280;46837;52.446;-1.930;2022-11-04T03:32:16;99171.30;;;6.64;82.15
60642;BME280;46837;52.446;-1.930;2022-11-04T03:34:09;99172.39;;;6.62;82.17
60642;BME280;46837;52.446;-1.930;2022-11-04T03:35:09;99175.48;;;6.61;82.33
60642;BME280;46837;52.446;-1.930;2022-11-04T03:36:09;99175.64;;;6.61;82.33
60642;BME280;46837;52.446;-1.930;2022-11-04T03:37:09;99177.64;;;6.60;82.39
60642;BME280;46837;52.446;-1.930;2022-11-04T03:38:09;99178.19;;;6.62;82.39
60642;BME280;46837;52.446;-1.930;2022-11-04T03:39:09;99179.77;;;6.62;82.40
60642;BME280;46837;52.446;-1.930;2022-11-04T03:40:09;99184.71;;;6.60;82.47
60642;BME280;46837;52.446;-1.930;2022-11-04T03:41:14;99185.13;;;6.58;82.55
60642;BME280;46837;52.446;-1.930;2022-11-04T03:42:14;99189.46;;;6.57;82.68
60642;BME280;46837;52.446;-1.930;2022-11-04T03:43:13;99189.96;;;6.58;82.62
60642;BME280;46837;52.446;-1.930;2022-11-04T03:44:09;99196.64;;;6.59;82.60
60642;BME280;46837;52.446;-1.930;2022-11-04T03:45:09;99196.64;;;6.59;82.54
60642;BME280;46837;52.446;-1.930;2022-11-04T03:46:09;99197.25;;;6.59;82.45
60642;BME280;46837;52.446;-1.930;2022-11-04T03:47:09;99202.23;;;6.58;82.61
60642;BME280;46837;52.446;-1.930;2022-11-04T03:48:09;99205.66;;;6.58;82.60
60642;BME280;46837;52.446;-1.930;2022-11-04T03:49:09;99209.99;;;6.58;82.56
60642;BME280;46837;52.446;-1.930;2022-11-04T03:50:11;99211.52;;;6.58;82.55
60642;BME280;46837;52.446;-1.930;2022-11-04T03:51:09;99218.36;;;6.58;82.44
60642;BME280;46837;52.446;-1.930;2022-11-04T03:52:09;99215.46;;;6.57;82.44
60642;BME280;46837;52.446;-1.930;2022-11-04T03:53:09;99221.82;;;6.56;82.52
60642;BME280;46837;52.446;-1.930;2022-11-04T03:54:09;99228.00;;;6.52;82.58
60642;BME280;46837;52.446;-1.930;2022-11-04T03:55:09;99227.66;;;6.51;82.75
60642;BME280;46837;52.446;-1.930;2022-11-04T03:57:16;99231.52;;;6.51;82.78
60642;BME280;46837;52.446;-1.930;2022-11-04T04:02:16;99237.00;;;6.51;82.64
60642;BME280;46837;52.446;-1.930;2022-11-04T04:05:16;99237.74;;;6.48;82.71
60642;BME280;46837;52.446;-1.930;2022-11-04T04:06:15;99245.12;;;6.45;82.76
60642;BME280;46837;52.446;-1.930;2022-11-04T04:07:15;99246.41;;;6.45;82.78
60642;BME280;46837;52.446;-1.930;2022-11-04T04:08:15;99250.98;;;6.45;82.86
60642;BME280;46837;52.446;-1.930;2022-11-04T04:09:18;99253.38;;;6.46;82.81
60642;BME280;46837;52.446;-1.930;2022-11-04T04:10:27;99256.44;;;6.43;82.78
60642;BME280;46837;52.446;-1.930;2022-11-04T04:12:15;99260.73;;;6.44;82.85
60642;BME280;46837;52.446;-1.930;2022-11-04T04:13:18;99263.45;;;6.46;82.76
60642;BME280;46837;52.446;-1.930;2022-11-04T04:15:14;99274.00;;;6.48;82.76
60642;BME280;46837;52.446;-1.930;2022-11-04T04:16:14;99278.93;;;6.48;82.62
60642;BME280;46837;52.446;-1.930;2022-11-04T04:17:15;99279.31;;;6.45;82.63
60642;BME280;46837;52.446;-1.930;2022-11-04T04:18:14;99279.56;;;6.43;82.61
60642;BME280;46837;52.446;-1.930;2022-11-04T04:19:13;99283.32;;;6.45;82.74
60642;BME280;46837;52.446;-1.930;2022-11-04T04:20:14;99283.05;;;6.45;82.69
60642;BME280;46837;52.446;-1.930;2022-11-04T04:21:10;99284.68;;;6.45;82.63
60642;BME280;46837;52.446;-1.930;2022-11-04T04:22:14;99289.34;;;6.47;82.73
60642;BME280;46837;52.446;-1.930;2022-11-04T04:23:20;99287.93;;;6.47;82.64
60642;BME280;46837;52.446;-1.930;2022-11-04T04:24:14;99289.79;;;6.48;82.62
60642;BME280;46837;52.446;-1.930;2022-11-04T04:25:14;99291.68;;;6.47;82.56
60642;BME280;46837;52.446;-1.930;2022-11-04T04:26:13;99297.55;;;6.48;82.66
60642;BME280;46837;52.446;-1.930;2022-11-04T04:27:13;99297.94;;;6.49;82.53
60642;BME280;46837;52.446;-1.930;2022-11-04T04:28:09;99299.61;;;6.49;82.49
60642;BME280;46837;52.446;-1.930;2022-11-04T04:29:09;99299.46;;;6.49;82.47
60642;BME280;46837;52.446;-1.930;2022-11-04T04:30:13;99306.88;;;6.47;82.43
60642;BME280;46837;52.446;-1.930;2022-11-04T04:31:09;99305.69;;;6.47;82.46
60642;BME280;46837;52.446;-1.930;2022-11-04T04:32:09;99306.88;;;6.47;82.48
60642;BME280;46837;52.446;-1.930;2022-11-04T04:33:12;99309.59;;;6.47;82.45
60642;BME280;46837;52.446;-1.930;2022-11-04T04:34:09;99312.78;;;6.46;82.52
60642;BME280;46837;52.446;-1.930;2022-11-04T04:35:13;99314.64;;;6.47;82.45
60642;BME280;46837;52.446;-1.930;2022-11-04T04:36:09;99320.98;;;6.47;82.47
60642;BME280;46837;52.446;-1.930;2022-11-04T04:39:13;99332.68;;;6.42;82.63
60642;BME280;46837;52.446;-1.930;2022-11-04T04:40:15;99331.85;;;6.38;82.77
60642;BME280;46837;52.446;-1.930;2022-11-04T04:42:13;99341.52;;;6.39;82.94
60642;BME280;46837;52.446;-1.930;2022-11-04T04:43:15;99343.45;;;6.39;82.86
60642;BME280;46837;52.446;-1.930;2022-11-04T04:44:19;99347.12;;;6.41;82.85
60642;BME280;46837;52.446;-1.930;2022-11-04T04:45:09;99352.96;;;6.40;82.70
60642;BME280;46837;52.446;-1.930;2022-11-04T04:46:09;99354.42;;;6.39;82.82
60642;BME280;46837;52.446;-1.930;2022-11-04T04:47:09;99358.80;;;6.35;82.84
60642;BME280;46837;52.446;-1.930;2022-11-04T04:48:10;99358.73;;;6.36;82.89
60642;BME280;46837;52.446;-1.930;2022-11-04T04:49:09;99362.61;;;6.37;82.83
60642;BME280;46837;52.446;-1.930;2022-11-04T04:50:10;99363.00;;;6.38;82.65
60642;BME280;46837;52.446;-1.930;2022-11-04T04:51:09;99361.71;;;6.32;82.52
60642;BME280;46837;52.446;-1.930;2022-11-04T04:52:09;99365.65;;;6.28;82.67
60642;BME280;46837;52.446;-1.930;2022-11-04T04:53:09;99368.73;;;6.27;82.73
60642;BME280;46837;52.446;-1.930;2022-11-04T04:54:09;99372.12;;;6.23;82.63
60642;BME280;46837;52.446;-1.930;2022-11-04T04:55:09;99374.67;;;6.24;82.77
60642;BME280;46837;52.446;-1.930;2022-11-04T04:56:09;99377.70;;;6.23;82.71
60642;BME280;46837;52.446;-1.930;2022-11-04T04:57:09;99376.49;;;6.21;82.61
60642;BME280;46837;52.446;-1.930;2022-11-04T04:58:09;99378.94;;;6.21;82.59
60642;BME280;46837;52.446;-1.930;2022-11-04T04:59:09;99376.73;;;6.17;82.73
60642;BME280;46837;52.446;-1.930;2022-11-04T05:00:11;99378.66;;;6.15;82.76
60642;BME280;46837;52.446;-1.930;2022-11-04T05:01:09;99378.05;;;6.14;82.81
60642;BME280;46837;52.446;-1.930;2022-11-04T05:02:09;99381.45;;;6.16;82.92
60642;BME280;46837;52.446;-1.930;2022-11-04T05:03:09;99381.05;;;6.15;82.81
60642;BME280;46837;52.446;-1.930;2022-11-04T05:04:09;99386.63;;;6.15;82.86
60642;BME280;46837;52.446;-1.930;2022-11-04T05:05:09;99388.32;;;6.14;82.82
60642;BME280;46837;52.446;-1.930;2022-11-04T05:06:09;99393.51;;;6.13;82.88
60642;BME280;46837;52.446;-1.930;2022-11-04T05:07:09;99397.39;;;6.11;82.78
60642;BME280;46837;52.446;-1.930;2022-11-04T05:08:09;99400.43;;;6.09;82.85
60642;BME280;46837;52.446;-1.930;2022-11-04T05:09:09;99404.15;;;6.08;82.83
60642;BME280;46837;52.446;-1.930;2022-11-04T05:10:09;99401.91;;;6.05;82.79
60642;BME280;46837;52.446;-1.930;2022-11-04T05:11:09;99405.45;;;6.01;82.75
60642;BME280;46837;52.446;-1.930;2022-11-04T05:12:09;99404.73;;;5.99;82.81
60642;BME280;46837;52.446;-1.930;2022-11-04T05:13:13;99409.50;;;5.98;82.80
60642;BME280;46837;52.446;-1.930;2022-11-04T05:14:09;99412.68;;;5.96;82.77
60642;BME280;46837;52.446;-1.930;2022-11-04T05:15:09;99415.11;;;5.95;82.72
60642;BME280;46837;52.446;-1.930;2022-11-04T05:16:09;99418.45;;;5.91;82.77
60642;BME280;46837;52.446;-1.930;2022-11-04T05:17:09;99422.09;;;5.92;82.94
60642;BME280;46837;52.446;-1.930;2022-11-04T05:18:09;99430.27;;;5.91;82.95
60642;BME280;46837;52.446;-1.930;2022-11-04T05:19:09;99433.39;;;5.88;82.88
60642;BME280;46837;52.446;-1.930;2022-11-04T05:20:09;99440.12;;;5.89;82.99
60642;BME280;46837;52.446;-1.930;2022-11-04T05:21:11;99445.12;;;5.90;82.99
60642;BME280;46837;52.446;-1.930;2022-11-04T05:22:09;99448.74;;;5.89;82.79
60642;BME280;46837;52.446;-1.930;2022-11-04T05:23:09;99453.76;;;5.87;82.97
60642;BME280;46837;52.446;-1.930;2022-11-04T05:24:09;99446.99;;;5.83;82.93
60642;BME280;46837;52.446;-1.930;2022-11-04T05:25:09;99455.39;;;5.86;83.09
60642;BME280;46837;52.446;-1.930;2022-11-04T05:26:09;99462.04;;;5.85;82.93
60642;BME280;46837;52.446;-1.930;2022-11-04T05:27:09;99462.66;;;5.87;83.13
60642;BME280;46837;52.446;-1.930;2022-11-04T05:28:09;99464.15;;;5.84;83.03
60642;BME280;46837;52.446;-1.930;2022-11-04T05:29:09;99464.76;;;5.85;83.16
60642;BME280;46837;52.446;-1.930;2022-11-04T05:30:09;99466.71;;;5.81;83.19
60642;BME280;46837;52.446;-1.930;2022-11-04T05:31:09;99467.19;;;5.85;83.37
60642;BME280;46837;52.446;-1.930;2022-11-04T05:32:09;99466.61;;;5.87;83.23
60642;BME280;46837;52.446;-1.930;2022-11-04T05:33:09;99470.07;;;5.87;83.12
60642;BME280;46837;52.446;-1.930;2022-11-04T05:34:10;99472.18;;;5.85;83.11
60642;BME280;46837;52.446;-1.930;2022-11-04T05:35:09;99479.19;;;5.86;83.16
60642;BME280;46837;52.446;-1.930;2022-11-04T05:36:10;99480.12;;;5.88;83.29
60642;BME280;46837;52.446;-1.930;2022-11-04T05:37:09;99478.31;;;5.85;83.25
60642;BME280;46837;52.446;-1.930;2022-11-04T05:38:09;99479.79;;;5.86;83.19
60642;BME280;46837;52.446;-1.930;2022-11-04T05:39:10;99481.95;;;5.87;83.28
60642;BME280;46837;52.446;-1.930;2022-11-04T05:40:09;99488.82;;;5.85;83.27
60642;BME280;46837;52.446;-1.930;2022-11-04T05:41:10;99483.96;;;5.85;83.40
60642;BME280;46837;52.446;-1.930;2022-11-04T05:42:09;99484.69;;;5.89;83.32
60642;BME280;46837;52.446;-1.930;2022-11-04T05:43:09;99490.51;;;5.86;83.12
60642;BME280;46837;52.446;-1.930;2022-11-04T05:44:10;99490.35;;;5.85;83.26
60642;BME280;46837;52.446;-1.930;2022-11-04T05:45:09;99500.51;;;5.83;83.31
60642;BME280;46837;52.446;-1.930;2022-11-04T05:46:09;99497.86;;;5.82;83.35
60642;BME280;46837;52.446;-1.930;2022-11-04T05:47:09;99500.43;;;5.85;83.37
60642;BME280;46837;52.446;-1.930;2022-11-04T05:48:09;99502.31;;;5.84;83.30
60642;BME280;46837;52.446;-1.930;2022-11-04T05:49:09;99505.34;;;5.82;83.24
60642;BME280;46837;52.446;-1.930;2022-11-04T05:50:09;99513.52;;;5.83;83.31
60642;BME280;46837;52.446;-1.930;2022-11-04T05:51:11;99513.06;;;5.85;83.38
60642;BME280;46837;52.446;-1.930;2022-11-04T05:52:09;99512.31;;;5.85;83.29
60642;BME280;46837;52.446;-1.930;2022-11-04T05:53:09;99518.77;;;5.81;83.45
60642;BME280;46837;52.446;-1.930;2022-11-04T05:54:09;99518.99;;;5.83;83.79
60642;BME280;46837;52.446;-1.930;2022-11-04T05:55:09;99522.96;;;5.82;83.96
60642;BME280;46837;52.446;-1.930;2022-11-04T05:56:09;99522.87;;;5.84;84.16